Terminal Aerodrome Forecast
Issued by NWS

Home | Current Version | Previous Version | Text Only | Print | Product List | Glossary Off
Versions: 1 2 3 4 5 6 7 8 9 10 11 12 13 14 15 16 17 18 19 20 21

000
FTUS43 KLOT 101730
TAFGYY
TAF
KGYY 101730Z 1018/1118 24015G25KT P6SM BKN250
     FM102200 30010KT P6SM BKN050
     FM111400 21007KT P6SM -SHSN SCT025 BKN040
      TEMPO 1117/1118 2SM -SHSN SCT020 BKN025=

USA.gov is the U.S. government's official web portal to all federal, state and local government web resources and services.